Time;durP1;ratioP1;P1;durP2;ratioP2;P2;SDS_P1;SDS_P2;PMS_P1;PMS_P2;Temp;Humidity;BMP_temperature;BMP_pressure;BME280_temperature;BME280_humidity;BME280_pressure;Samples;Min_cycle;Max_cycle;Signal;HPM_P1;HPM_P2
2022/09/28 04:00:18;;;;;;;1.20;0.90;;;;;;;13.05;68.41;99280.62;5595446;31;77502;-57
2022/09/28 04:03:20;;;;;;;2.80;1.10;;;;;;;13.07;68.41;99283.38;5583089;31;33083;-58
2022/09/28 04:06:25;;;;;;;2.83;1.10;;;;;;;12.61;71.35;99287.63;5587430;31;33081;-58
2022/09/28 04:09:28;;;;;;;2.97;1.00;;;;;;;12.65;70.78;99293.19;5582691;31;34221;-58
2022/09/28 04:12:30;;;;;;;1.75;1.00;;;;;;;12.55;70.90;99280.88;5583223;31;33576;-58
2022/09/28 04:15:32;;;;;;;3.05;1.00;;;;;;;12.66;70.44;99279.41;5583140;31;34303;-58
2022/09/28 04:18:34;;;;;;;1.62;1.00;;;;;;;12.66;69.84;99270.56;5585225;31;33554;-58
2022/09/28 04:21:37;;;;;;;3.50;1.12;;;;;;;12.65;70.77;99275.16;5582389;31;33371;-58
2022/09/28 04:24:42;;;;;;;5.25;1.50;;;;;;;12.67;70.24;99283.66;5583805;31;34412;-58
2022/09/28 04:31:15;;;;;;;2.03;1.05;;;;;;;12.66;70.21;99273.25;5582864;31;33273;-58
2022/09/28 04:34:19;;;;;;;2.12;1.20;;;;;;;12.75;70.20;99275.91;5582781;31;33587;-58
2022/09/28 04:37:23;;;;;;;4.18;1.58;;;;;;;12.73;70.81;99275.44;5573969;32;33903;-58
2022/09/28 04:40:25;;;;;;;4.30;1.40;;;;;;;12.63;69.62;99266.59;5582261;31;32753;-58
2022/09/28 04:43:28;;;;;;;2.53;1.40;;;;;;;12.59;70.41;99278.34;5582281;32;33802;-58
2022/09/28 04:46:31;;;;;;;2.42;1.40;;;;;;;12.66;70.59;99286.69;5582987;31;32478;-58
2022/09/28 04:49:37;;;;;;;2.78;1.40;;;;;;;12.55;71.01;99277.37;5582875;31;34450;-58
2022/09/28 04:52:39;;;;;;;3.87;1.42;;;;;;;12.49;71.42;99268.72;5583556;31;34251;-58
2022/09/28 04:55:42;;;;;;;3.42;1.10;;;;;;;12.40;72.07;99276.00;5587249;31;34403;-58
2022/09/28 04:58:44;;;;;;;3.30;1.30;;;;;;;12.36;71.35;99275.06;5586398;31;33265;-58
2022/09/28 05:01:54;;;;;;;3.35;1.20;;;;;;;12.36;71.93;99267.78;5598603;31;33334;-58
2022/09/28 05:04:58;;;;;;;3.62;1.40;;;;;;;12.36;72.16;99267.00;5581841;31;31939;-58
2022/09/28 05:08:00;;;;;;;2.65;1.35;;;;;;;12.18;72.47;99282.31;5582665;31;33704;-58
2022/09/28 05:11:06;;;;;;;2.05;1.17;;;;;;;12.19;72.48;99283.94;5573115;31;33671;-58
2022/09/28 05:14:10;;;;;;;3.10;1.40;;;;;;;12.06;72.96;99288.34;5568845;31;32809;-58
2022/09/28 05:17:13;;;;;;;2.27;1.43;;;;;;;12.17;72.83;99284.22;5574949;31;34326;-58
2022/09/28 05:20:16;;;;;;;2.17;1.50;;;;;;;12.12;72.83;99289.78;5576154;31;33344;-58
2022/09/28 05:23:18;;;;;;;2.58;1.40;;;;;;;12.16;72.70;99281.88;5565179;31;34205;-58
2022/09/28 05:26:21;;;;;;;5.32;1.48;;;;;;;12.08;74.33;99298.78;5568523;31;33892;-58
2022/09/28 05:29:24;;;;;;;10.30;1.75;;;;;;;12.12;73.22;99300.53;5567692;31;34129;-58
2022/09/28 05:32:31;;;;;;;14.68;2.65;;;;;;;12.03;72.82;99304.31;5567283;31;33261;-58
2022/09/28 05:35:33;;;;;;;14.90;2.87;;;;;;;12.10;73.72;99300.03;5569338;31;33290;-58
2022/09/28 05:38:36;;;;;;;34.63;5.15;;;;;;;12.10;71.98;99307.31;5581690;31;34524;-58
2022/09/28 05:41:38;;;;;;;7.68;3.62;;;;;;;12.03;74.59;99312.38;5569796;31;34071;-59
2022/09/28 05:44:40;;;;;;;7.43;2.00;;;;;;;12.19;71.45;99305.44;5569941;31;34244;-58
2022/09/28 05:47:44;;;;;;;4.12;1.65;;;;;;;12.13;73.16;99299.41;5568211;31;34200;-58
2022/09/28 05:50:51;;;;;;;3.08;1.60;;;;;;;12.18;71.99;99301.91;5567351;31;34443;-58
2022/09/28 05:53:55;;;;;;;2.42;1.37;;;;;;;12.14;71.79;99295.59;5563476;31;34410;-57
2022/09/28 05:56:57;;;;;;;6.25;1.65;;;;;;;12.26;73.29;99291.50;5567211;31;33229;-58
2022/09/28 06:00:03;;;;;;;5.72;1.37;;;;;;;12.31;71.31;99297.50;5568532;31;35290;-58
2022/09/28 06:03:13;;;;;;;4.07;1.42;;;;;;;12.40;72.64;99294.81;5573683;31;35055;-58
2022/09/28 06:06:16;;;;;;;2.25;1.50;;;;;;;12.38;71.84;99295.13;5563798;31;34685;-58
2022/09/28 06:09:18;;;;;;;2.35;1.40;;;;;;;12.46;71.66;99293.53;5565995;31;33233;-58
2022/09/28 06:12:27;;;;;;;7.30;1.95;;;;;;;12.49;70.72;99287.53;5569425;31;33094;-58
2022/09/28 06:15:31;;;;;;;11.68;2.00;;;;;;;12.66;70.64;99282.09;5567742;31;34216;-58
2022/09/28 06:18:34;;;;;;;10.88;2.75;;;;;;;12.51;68.83;99285.28;5585771;31;34410;-58
2022/09/28 06:21:37;;;;;;;5.55;1.77;;;;;;;12.56;70.58;99292.41;5566818;31;33644;-58
2022/09/28 06:24:40;;;;;;;6.40;2.50;;;;;;;12.65;69.66;99291.28;5550257;31;34199;-58
2022/09/28 06:27:42;;;;;;;8.60;2.22;;;;;;;12.78;69.68;99291.38;5567257;31;35657;-58
2022/09/28 06:30:44;;;;;;;3.92;1.52;;;;;;;12.81;70.69;99294.22;5564540;31;34261;-58
2022/09/28 06:33:50;;;;;;;5.93;1.65;;;;;;;12.83;70.41;99294.72;5565730;31;33377;-58
2022/09/28 06:36:52;;;;;;;3.10;1.58;;;;;;;12.85;73.18;99295.19;5565929;31;32052;-58
2022/09/28 06:39:55;;;;;;;6.47;1.60;;;;;;;12.94;70.83;99298.63;5564580;31;34165;-58
2022/09/28 06:42:59;;;;;;;3.08;1.30;;;;;;;13.10;72.03;99298.88;5573994;31;31954;-58
2022/09/28 06:46:02;;;;;;;2.10;1.27;;;;;;;13.19;70.49;99300.75;5578030;31;33430;-58
2022/09/28 06:49:08;;;;;;;2.72;1.05;;;;;;;13.36;69.94;99306.09;5570418;31;33343;-58
2022/09/28 06:52:13;;;;;;;2.62;1.20;;;;;;;13.44;68.72;99304.44;5567198;31;32933;-58
2022/09/28 06:55:17;;;;;;;4.70;1.40;;;;;;;13.43;66.79;99302.88;5563333;31;33226;-58
2022/09/28 06:58:20;;;;;;;4.05;1.20;;;;;;;13.45;65.65;99306.84;5566168;31;33595;-58
2022/09/28 07:01:23;;;;;;;2.25;1.00;;;;;;;13.41;66.12;99311.28;5584363;31;33320;-58
2022/09/28 07:04:29;;;;;;;4.72;1.70;;;;;;;13.51;68.89;99310.09;5567102;31;32918;-58
2022/09/28 07:07:33;;;;;;;3.28;1.30;;;;;;;13.53;66.55;99311.38;5564559;31;34205;-58
2022/09/28 07:10:40;;;;;;;5.10;1.20;;;;;;;13.61;66.35;99301.69;5570226;31;33478;-58
2022/09/28 07:13:43;;;;;;;0.88;0.77;;;;;;;13.69;66.60;99308.13;5563371;31;33650;-58
2022/09/28 07:16:54;;;;;;;2.90;1.00;;;;;;;13.75;66.53;99310.28;5563843;31;33242;-58
2022/09/28 07:20:14;;;;;;;2.30;1.35;;;;;;;13.88;65.97;99310.38;5566048;31;34386;-58
2022/09/28 07:23:22;;;;;;;3.92;1.30;;;;;;;13.94;66.98;99304.47;5568634;31;33389;-58
2022/09/28 07:26:32;;;;;;;2.75;0.93;;;;;;;13.95;66.35;99303.34;5566585;31;32250;-58
2022/09/28 07:29:34;;;;;;;2.50;1.10;;;;;;;13.98;65.89;99296.50;5562069;31;31798;-58
2022/09/28 07:32:39;;;;;;;3.55;1.20;;;;;;;14.10;66.52;99293.84;5565392;32;33256;-58
2022/09/28 07:35:49;;;;;;;2.15;1.55;;;;;;;14.18;65.02;99298.41;5566250;31;33230;-58
2022/09/28 07:38:51;;;;;;;2.70;0.90;;;;;;;14.22;64.63;99298.53;5567769;31;33714;-58
2022/09/28 07:41:54;;;;;;;3.58;1.00;;;;;;;14.19;64.45;99293.78;5566359;31;34294;-58
2022/09/28 07:45:05;;;;;;;1.48;0.93;;;;;;;14.34;64.87;99293.19;5566212;31;32909;-58
2022/09/28 07:48:08;;;;;;;1.73;0.90;;;;;;;14.30;62.33;99286.88;5564201;31;32276;-58
2022/09/28 07:51:11;;;;;;;4.05;1.20;;;;;;;14.41;62.08;99293.44;5569073;31;34275;-58
2022/09/28 07:54:13;;;;;;;3.12;1.52;;;;;;;14.59;62.68;99296.78;5552298;31;34394;-58
2022/09/28 07:57:18;;;;;;;1.27;1.02;;;;;;;14.52;63.95;99300.00;5565260;31;33051;-58
2022/09/28 08:00:21;;;;;;;1.65;1.00;;;;;;;14.53;65.00;99301.56;5565706;32;33719;-58
2022/09/28 08:03:23;;;;;;;1.55;1.20;;;;;;;14.62;64.07;99308.81;5565099;31;34226;-58
2022/09/28 08:06:26;;;;;;;2.70;1.30;;;;;;;14.67;64.38;99313.97;5564232;31;33132;-58
2022/09/28 08:09:28;;;;;;;4.30;1.20;;;;;;;14.70;64.87;99307.91;5566380;31;33542;-58
2022/09/28 08:12:34;;;;;;;6.28;1.90;;;;;;;14.88;65.84;99303.12;5571852;31;31986;-58
2022/09/28 08:15:37;;;;;;;3.20;1.83;;;;;;;15.00;66.27;99309.34;5576640;31;34408;-58
2022/09/28 08:18:40;;;;;;;4.30;2.00;;;;;;;15.06;64.88;99291.00;5563745;31;33368;-58
2022/09/28 08:21:45;;;;;;;3.22;2.03;;;;;;;14.98;66.67;99284.59;5564145;31;33654;-57
2022/09/28 08:24:48;;;;;;;3.10;1.90;;;;;;;15.00;65.87;99273.47;5561710;31;33431;-58
2022/09/28 08:27:51;;;;;;;3.72;1.77;;;;;;;15.00;66.52;99271.56;5561873;31;33291;-58
2022/09/28 08:30:57;;;;;;;2.80;1.67;;;;;;;15.02;65.76;99272.00;5562529;31;33378;-58
2022/09/28 08:34:01;;;;;;;4.22;1.70;;;;;;;15.15;67.11;99264.69;5563862;31;36096;-58
2022/09/28 08:37:08;;;;;;;4.32;1.58;;;;;;;15.15;67.48;99269.31;5565632;31;33311;-58
2022/09/28 08:40:17;;;;;;;3.58;1.73;;;;;;;15.25;65.29;99264.25;5559742;32;33045;-58
2022/09/28 08:43:55;;;;;;;2.97;1.42;;;;;;;15.29;65.67;99277.84;5562809;31;33192;-58
2022/09/28 08:47:04;;;;;;;5.65;2.00;;;;;;;15.49;63.58;99289.66;5564527;31;32887;-58
2022/09/28 08:50:15;;;;;;;3.35;1.50;;;;;;;15.59;64.98;99296.50;5567950;31;33295;-58
2022/09/28 08:53:59;;;;;;;13.10;2.37;;;;;;;15.52;64.63;99288.97;5564038;32;33701;-58
2022/09/28 08:57:15;;;;;;;4.05;1.52;;;;;;;15.66;62.72;99300.25;5520767;32;33854;-58
2022/09/28 09:00:30;;;;;;;;;;;;;;;15.77;62.25;99294.38;5557475;32;31778;-58
2022/09/28 09:03:36;;;;;;;13.35;1.60;;;;;;;15.86;62.32;99286.91;5568511;31;33693;-58
2022/09/28 09:06:42;;;;;;;2.05;1.33;;;;;;;15.90;61.37;99280.50;5569364;31;33414;-58
2022/09/28 09:10:19;;;;;;;2.60;1.33;;;;;;;15.90;61.57;99291.31;5574596;31;33398;-58
2022/09/28 09:13:39;;;;;;;2.25;1.40;;;;;;;15.90;62.24;99285.13;5558073;31;32055;-58
2022/09/28 09:17:12;;;;;;;5.32;2.00;;;;;;;15.74;62.88;99276.94;5567994;31;33734;-58
2022/09/28 09:20:28;;;;;;;9.32;3.22;;;;;;;15.77;63.46;99272.78;5563996;31;33645;-58
2022/09/28 09:23:42;;;;;;;3.27;1.70;;;;;;;16.02;60.55;99268.06;5563139;31;34335;-58
2022/09/28 09:26:44;;;;;;;4.15;1.48;;;;;;;15.85;63.07;99261.03;5578158;31;33702;-58
2022/09/28 09:30:15;;;;;;;8.07;2.30;;;;;;;15.94;62.79;99270.56;5563515;31;33317;-58
2022/09/28 09:34:10;;;;;;;3.10;2.03;;;;;;;16.01;62.98;99270.00;5563802;31;33493;-58
2022/09/28 09:37:28;;;;;;;5.68;1.50;;;;;;;16.03;63.80;99266.97;5557087;31;32594;-58
2022/09/28 09:40:43;;;;;;;2.55;1.50;;;;;;;16.02;64.46;99260.75;5553384;31;34798;-58
2022/09/28 09:44:01;;;;;;;1.98;1.37;;;;;;;16.21;63.36;99257.41;5563519;32;34393;-58
2022/09/28 09:47:10;;;;;;;3.78;1.48;;;;;;;16.40;60.49;99267.59;5562779;31;33567;-58
2022/09/28 09:50:34;;;;;;;3.05;1.50;;;;;;;16.49;60.31;99256.59;5566982;31;32011;-58
2022/09/28 09:53:44;;;;;;;13.52;1.60;;;;;;;16.57;59.57;99261.84;5565511;32;32301;-57
2022/09/28 09:57:02;;;;;;;3.83;1.50;;;;;;;16.43;60.81;99275.00;5564681;31;33504;-58
2022/09/28 10:00:13;;;;;;;3.97;1.30;;;;;;;16.26;60.66;99273.41;5563183;31;33865;-57
2022/09/28 10:03:37;;;;;;;2.47;1.40;;;;;;;16.40;60.49;99275.69;5566652;31;33380;-58
2022/09/28 10:06:41;;;;;;;3.83;1.30;;;;;;;16.34;61.74;99264.34;5569351;31;33350;-58
2022/09/28 10:09:47;;;;;;;2.45;1.48;;;;;;;16.27;62.69;99272.25;5551853;31;34091;-58
2022/09/28 10:12:51;;;;;;;2.40;1.30;;;;;;;16.37;60.99;99265.56;5571123;31;33939;-58
2022/09/28 10:15:55;;;;;;;2.35;1.25;;;;;;;16.37;62.42;99276.37;5565199;31;34178;-58
2022/09/28 10:18:58;;;;;;;2.35;1.33;;;;;;;16.23;62.54;99286.81;5565102;31;33328;-58
2022/09/28 10:22:14;;;;;;;2.17;1.33;;;;;;;16.30;62.63;99282.38;5568422;31;32040;-58
2022/09/28 10:25:18;;;;;;;1.95;1.42;;;;;;;16.19;64.46;99284.00;5568024;31;33289;-58
2022/09/28 10:28:31;;;;;;;3.35;1.42;;;;;;;16.25;62.95;99263.69;5568127;31;33959;-58
2022/09/28 10:31:39;;;;;;;2.70;1.23;;;;;;;16.27;63.14;99280.38;5565458;31;33445;-58
2022/09/28 10:34:42;;;;;;;1.55;1.27;;;;;;;16.34;62.99;99277.06;5568533;31;33905;-58
2022/09/28 10:38:03;;;;;;;3.17;1.27;;;;;;;16.39;62.58;99266.81;5566123;31;34380;-58
2022/09/28 10:41:12;;;;;;;2.22;1.17;;;;;;;16.35;62.70;99281.34;5567857;31;33251;-58
2022/09/28 10:44:17;;;;;;;3.22;1.30;;;;;;;16.41;61.58;99275.34;5566525;31;33504;-58
2022/09/28 10:47:25;;;;;;;1.67;1.00;;;;;;;16.59;59.43;99275.81;5572024;31;34399;-58
2022/09/28 10:50:27;;;;;;;2.90;1.62;;;;;;;16.67;59.44;99279.50;5566961;31;34319;-58
2022/09/28 10:53:33;;;;;;;1.37;1.23;;;;;;;16.58;60.44;99273.44;5567744;32;32221;-58
2022/09/28 10:56:39;;;;;;;2.62;1.60;;;;;;;16.71;60.98;99269.53;5562907;31;32755;-58
2022/09/28 10:59:42;;;;;;;2.20;1.50;;;;;;;16.71;59.55;99264.13;5573724;31;33361;-58
2022/09/28 11:02:45;;;;;;;1.73;1.20;;;;;;;16.70;58.72;99265.25;5563455;31;32863;-58
2022/09/28 11:06:01;;;;;;;5.55;1.65;;;;;;;16.62;60.43;99258.91;5568473;31;34194;-58
2022/09/28 11:09:24;;;;;;;4.28;2.05;;;;;;;16.66;59.92;99256.28;5564161;31;34218;-58
2022/09/28 11:12:41;;;;;;;4.85;2.30;;;;;;;16.59;60.85;99247.97;5563747;32;33199;-58
2022/09/28 11:15:44;;;;;;;7.80;2.37;;;;;;;16.77;58.61;99245.75;5561838;31;33291;-58
2022/09/28 11:18:48;;;;;;;4.95;2.78;;;;;;;16.86;59.65;99244.44;5559913;31;33410;-58
2022/09/28 11:21:50;;;;;;;6.40;2.20;;;;;;;17.03;59.56;99235.16;5560034;31;33628;-58
2022/09/28 11:25:17;;;;;;;4.72;2.00;;;;;;;17.09;60.31;99235.69;5564503;32;33176;-58
2022/09/28 11:28:26;;;;;;;3.50;2.33;;;;;;;17.07;60.30;99235.25;5560443;31;34508;-58
2022/09/28 11:31:30;;;;;;;4.53;2.67;;;;;;;17.06;59.78;99229.06;5570856;31;33524;-58
2022/09/28 11:34:45;;;;;;;4.25;2.20;;;;;;;17.16;60.13;99230.44;5565423;31;33408;-58
2022/09/28 11:38:24;;;;;;;5.35;2.12;;;;;;;17.26;57.82;99229.91;5561891;31;33509;-58
2022/09/28 11:41:30;;;;;;;3.80;1.90;;;;;;;17.40;57.17;99232.13;5561019;31;33237;-58
2022/09/28 11:44:47;;;;;;;2.97;2.23;;;;;;;17.36;58.30;99233.97;5566200;32;33316;-58
2022/09/28 11:48:00;;;;;;;2.92;1.77;;;;;;;17.28;58.97;99219.47;5570479;31;33769;-58
2022/09/28 11:51:28;;;;;;;6.97;1.80;;;;;;;17.40;59.72;99225.94;5573592;31;34194;-58
2022/09/28 11:54:55;;;;;;;4.07;2.30;;;;;;;17.42;58.74;99232.56;5560410;31;33282;-58
2022/09/28 11:58:34;;;;;;;3.70;1.77;;;;;;;17.35;60.46;99226.97;5584126;31;34197;-58
2022/09/28 12:01:44;;;;;;;7.00;2.85;;;;;;;17.32;58.80;99223.06;5564308;32;33716;-58
2022/09/28 12:04:54;;;;;;;6.62;1.80;;;;;;;17.32;57.45;99204.12;5567073;31;33308;-58
2022/09/28 12:08:07;;;;;;;4.65;1.98;;;;;;;17.40;57.54;99206.97;5566420;31;33257;-58
2022/09/28 12:11:19;;;;;;;4.30;1.77;;;;;;;17.29;58.79;99190.50;5567649;31;34126;-58
2022/09/28 12:14:37;;;;;;;4.70;1.70;;;;;;;17.31;58.94;99190.91;5566508;31;33450;-58
2022/09/28 12:17:44;;;;;;;9.40;2.20;;;;;;;17.38;57.24;99189.16;5564290;32;33701;-58
2022/09/28 12:20:54;;;;;;;12.48;1.60;;;;;;;17.41;57.16;99184.94;5567608;32;33759;-58
2022/09/28 12:24:21;;;;;;;1.80;1.00;;;;;;;17.47;57.53;99193.56;5568364;32;33152;-58
2022/09/28 12:27:39;;;;;;;3.50;1.25;;;;;;;17.25;57.82;99187.72;5560699;32;34467;-58
2022/09/28 12:30:44;;;;;;;2.85;1.17;;;;;;;17.28;57.66;99183.50;5567501;32;33673;-58
2022/09/28 12:33:49;;;;;;;2.47;1.10;;;;;;;17.29;58.81;99182.38;5568202;32;33834;-58
2022/09/28 12:37:09;;;;;;;2.85;1.20;;;;;;;17.36;56.56;99172.47;5569416;32;33672;-58
2022/09/28 12:40:40;;;;;;;3.15;1.10;;;;;;;17.38;57.10;99172.91;5569519;32;34300;-58
2022/09/28 12:44:08;;;;;;;3.22;1.17;;;;;;;17.34;57.58;99157.69;5569787;32;33721;-58
2022/09/28 12:47:33;;;;;;;5.30;1.35;;;;;;;17.20;59.92;99166.31;5569211;32;33675;-58
2022/09/28 12:50:46;;;;;;;8.52;1.60;;;;;;;17.11;57.66;99163.00;5568016;32;33422;-58
2022/09/28 12:54:27;;;;;;;4.10;0.90;;;;;;;17.16;57.96;99168.16;5568527;32;33672;-58
2022/09/28 12:57:36;;;;;;;4.28;0.88;;;;;;;17.18;57.93;99165.88;5559372;32;33783;-58
2022/09/28 13:01:16;;;;;;;2.37;1.00;;;;;;;17.23;58.06;99165.59;5567601;32;34361;-58
2022/09/28 13:05:07;;;;;;;2.42;1.20;;;;;;;17.31;56.82;99164.59;5567983;32;33766;-58
2022/09/28 13:08:30;;;;;;;7.28;1.50;;;;;;;17.23;56.71;99165.59;5540211;31;34213;-57
2022/09/28 13:12:04;;;;;;;7.03;1.30;;;;;;;17.25;56.40;99157.91;5568400;32;34446;-58
2022/09/28 13:15:16;;;;;;;6.78;1.67;;;;;;;17.32;57.89;99162.69;5569065;32;34050;-58
2022/09/28 13:18:36;;;;;;;1.20;0.98;;;;;;;17.41;55.76;99157.06;5568932;32;33777;-58
2022/09/28 13:22:11;;;;;;;1.95;0.82;;;;;;;17.53;55.71;99144.16;5569499;32;33644;-58
2022/09/28 13:25:17;;;;;;;6.18;1.00;;;;;;;17.41;55.54;99147.00;5568665;32;34179;-58
2022/09/28 13:28:21;;;;;;;3.05;1.58;;;;;;;17.50;55.26;99153.00;5567207;32;33781;-58
2022/09/28 13:31:32;;;;;;;8.88;2.45;;;;;;;17.46;55.43;99160.28;5561719;32;33769;-58
2022/09/28 13:34:38;;;;;;;4.90;1.40;;;;;;;17.50;54.83;99157.66;5567848;32;33744;-58
2022/09/28 13:37:40;;;;;;;3.08;1.30;;;;;;;17.54;56.59;99164.69;5568213;32;34401;-58
2022/09/28 13:41:02;;;;;;;2.55;1.00;;;;;;;17.60;54.48;99151.66;5565934;32;33781;-58
2022/09/28 13:44:11;;;;;;;5.03;1.08;;;;;;;17.62;54.71;99146.66;5566218;32;34184;-58
2022/09/28 13:47:37;;;;;;;3.28;1.27;;;;;;;17.63;56.34;99140.09;5569084;32;34498;-58
2022/09/28 13:51:22;;;;;;;4.72;1.20;;;;;;;17.75;55.09;99142.66;5566445;32;34506;-58
2022/09/28 13:54:49;;;;;;;4.10;1.13;;;;;;;17.76;55.58;99149.69;5565062;32;33619;-58
2022/09/28 13:57:57;;;;;;;5.05;1.20;;;;;;;17.73;57.99;99144.94;5566204;32;33334;-58
2022/09/28 14:01:09;;;;;;;19.98;3.08;;;;;;;17.80;55.14;99150.53;5568089;32;34442;-58
2022/09/28 14:04:24;;;;;;;10.57;1.65;;;;;;;17.79;55.03;99142.75;5567304;32;34531;-58
2022/09/28 14:08:10;;;;;;;6.50;1.10;;;;;;;17.81;57.52;99138.56;5568609;32;34405;-58
2022/09/28 14:11:33;;;;;;;16.77;2.03;;;;;;;17.98;57.42;99144.66;5567261;32;33641;-58
2022/09/28 14:14:50;;;;;;;16.33;1.48;;;;;;;17.84;54.14;99150.59;5567453;32;34441;-58
2022/09/28 14:18:07;;;;;;;4.07;1.23;;;;;;;17.86;54.51;99145.59;5568534;32;34304;-58
2022/09/28 14:21:44;;;;;;;10.00;1.08;;;;;;;17.87;52.84;99147.16;5569219;32;34215;-58
2022/09/28 14:25:03;;;;;;;8.68;2.08;;;;;;;17.87;52.38;99144.47;5568499;32;34432;-58
2022/09/28 14:28:36;;;;;;;14.38;1.52;;;;;;;17.83;54.00;99141.69;5567055;32;33982;-58
2022/09/28 14:31:42;;;;;;;9.85;1.60;;;;;;;17.80;52.56;99128.84;5564602;32;33819;-58
2022/09/28 14:34:53;;;;;;;5.20;1.30;;;;;;;17.71;53.75;99141.78;5565933;32;34741;-58
2022/09/28 14:41:42;;;;;;;9.05;1.08;;;;;;;17.69;53.38;99135.19;5564672;32;33817;-58
2022/09/28 14:45:02;;;;;;;2.40;1.20;;;;;;;17.74;55.45;99135.66;5567517;32;33760;-58
2022/09/28 14:48:17;;;;;;;1.62;0.70;;;;;;;17.70;53.35;99128.62;5567996;32;34348;-58
2022/09/28 14:51:40;;;;;;;3.50;0.90;;;;;;;17.64;53.50;99121.91;5565335;32;33930;-58
2022/09/28 14:54:48;;;;;;;2.25;1.40;;;;;;;17.66;53.57;99125.06;5566632;32;34427;-58
2022/09/28 14:57:53;;;;;;;11.18;1.48;;;;;;;17.52;55.21;99131.00;5565047;32;33667;-58
2022/09/28 15:01:04;;;;;;;7.97;1.80;;;;;;;17.50;57.59;99130.53;5567987;32;34441;-58
2022/09/28 15:04:11;;;;;;;4.40;1.35;;;;;;;17.48;56.22;99127.41;5569063;32;33795;-57
2022/09/28 15:07:21;;;;;;;1.33;0.93;;;;;;;17.49;56.94;99123.56;5569036;32;34380;-58
2022/09/28 15:10:32;;;;;;;1.85;0.90;;;;;;;17.47;55.87;99120.44;5569131;32;33698;-58
2022/09/28 15:13:34;;;;;;;2.97;1.20;;;;;;;17.41;55.45;99122.63;5567338;32;34269;-58
2022/09/28 15:16:36;;;;;;;4.50;1.37;;;;;;;17.40;55.87;99118.34;5568783;32;33721;-58
2022/09/28 15:19:52;;;;;;;2.08;0.75;;;;;;;17.36;55.88;99118.28;5569131;32;33741;-59
2022/09/28 15:22:56;;;;;;;;;;;;;;;17.29;55.79;99111.94;5569181;32;33698;-58
2022/09/28 15:25:58;;;;;;;2.17;1.12;;;;;;;17.25;58.66;99108.34;5568913;32;34634;-58
2022/09/28 15:29:03;;;;;;;2.70;1.10;;;;;;;17.27;55.93;99108.78;5568285;32;33612;-58
2022/09/28 15:32:05;;;;;;;3.35;1.20;;;;;;;17.20;56.39;99104.03;5569145;32;34203;-58
